sensor_id;sensor_type;location;lat;lon;timestamp;P1;durP1;ratioP1;P2;durP2;ratioP2
24301;SDS011;12421;49.732;20.078;2022-11-20T00:02:10;131.70;;;65.00;;
24301;SDS011;12421;49.732;20.078;2022-11-20T00:12:13;159.80;;;75.70;;
24301;SDS011;12421;49.732;20.078;2022-11-20T00:22:17;151.30;;;74.80;;
24301;SDS011;12421;49.732;20.078;2022-11-20T00:32:21;146.40;;;73.00;;
24301;SDS011;12421;49.732;20.078;2022-11-20T00:42:25;136.60;;;68.50;;
24301;SDS011;12421;49.732;20.078;2022-11-20T00:52:30;146.40;;;72.80;;
24301;SDS011;12421;49.732;20.078;2022-11-20T01:02:34;142.70;;;70.80;;
24301;SDS011;12421;49.732;20.078;2022-11-20T01:12:38;120.80;;;58.10;;
24301;SDS011;12421;49.732;20.078;2022-11-20T01:22:42;163.30;;;75.00;;
24301;SDS011;12421;49.732;20.078;2022-11-20T01:32:45;147.60;;;69.00;;
24301;SDS011;12421;49.732;20.078;2022-11-20T01:42:52;119.30;;;54.80;;
24301;SDS011;12421;49.732;20.078;2022-11-20T01:53:28;133.70;;;64.40;;
24301;SDS011;12421;49.732;20.078;2022-11-20T02:03:36;119.10;;;61.50;;
24301;SDS011;12421;49.732;20.078;2022-11-20T02:13:40;106.70;;;51.80;;
24301;SDS011;12421;49.732;20.078;2022-11-20T02:24:03;109.30;;;53.30;;
24301;SDS011;12421;49.732;20.078;2022-11-20T02:34:09;117.20;;;61.10;;
24301;SDS011;12421;49.732;20.078;2022-11-20T02:44:13;110.00;;;57.40;;
24301;SDS011;12421;49.732;20.078;2022-11-20T02:54:17;107.40;;;53.90;;
24301;SDS011;12421;49.732;20.078;2022-11-20T03:04:21;104.80;;;50.60;;
24301;SDS011;12421;49.732;20.078;2022-11-20T03:14:25;101.50;;;56.40;;
24301;SDS011;12421;49.732;20.078;2022-11-20T03:24:29;93.90;;;49.50;;
24301;SDS011;12421;49.732;20.078;2022-11-20T03:34:33;87.30;;;45.00;;
24301;SDS011;12421;49.732;20.078;2022-11-20T03:44:36;79.50;;;40.70;;
24301;SDS011;12421;49.732;20.078;2022-11-20T03:54:40;97.90;;;51.80;;
24301;SDS011;12421;49.732;20.078;2022-11-20T04:04:44;86.50;;;45.10;;
24301;SDS011;12421;49.732;20.078;2022-11-20T04:14:48;76.30;;;40.50;;
24301;SDS011;12421;49.732;20.078;2022-11-20T04:24:52;82.50;;;39.70;;
24301;SDS011;12421;49.732;20.078;2022-11-20T04:34:55;72.50;;;32.40;;
24301;SDS011;12421;49.732;20.078;2022-11-20T04:44:59;54.70;;;26.30;;
24301;SDS011;12421;49.732;20.078;2022-11-20T04:55:03;82.00;;;40.00;;
24301;SDS011;12421;49.732;20.078;2022-11-20T05:05:07;70.20;;;37.40;;
24301;SDS011;12421;49.732;20.078;2022-11-20T05:15:11;67.50;;;34.90;;
24301;SDS011;12421;49.732;20.078;2022-11-20T05:25:15;72.90;;;39.10;;
24301;SDS011;12421;49.732;20.078;2022-11-20T05:35:19;70.70;;;36.80;;
24301;SDS011;12421;49.732;20.078;2022-11-20T05:45:23;60.90;;;33.40;;
24301;SDS011;12421;49.732;20.078;2022-11-20T05:55:27;58.60;;;29.70;;
24301;SDS011;12421;49.732;20.078;2022-11-20T06:05:33;75.90;;;38.80;;
24301;SDS011;12421;49.732;20.078;2022-11-20T06:15:36;76.90;;;39.40;;
24301;SDS011;12421;49.732;20.078;2022-11-20T06:25:41;58.00;;;32.30;;
24301;SDS011;12421;49.732;20.078;2022-11-20T06:35:45;63.10;;;34.00;;
24301;SDS011;12421;49.732;20.078;2022-11-20T06:45:53;69.00;;;37.00;;
24301;SDS011;12421;49.732;20.078;2022-11-20T06:55:58;71.80;;;41.00;;
24301;SDS011;12421;49.732;20.078;2022-11-20T07:06:02;67.30;;;37.10;;
24301;SDS011;12421;49.732;20.078;2022-11-20T07:16:07;79.40;;;42.00;;
24301;SDS011;12421;49.732;20.078;2022-11-20T07:26:12;72.30;;;40.30;;
24301;SDS011;12421;49.732;20.078;2022-11-20T07:36:16;73.00;;;40.80;;
24301;SDS011;12421;49.732;20.078;2022-11-20T07:46:19;81.80;;;46.60;;
24301;SDS011;12421;49.732;20.078;2022-11-20T07:56:24;99.20;;;54.20;;
24301;SDS011;12421;49.732;20.078;2022-11-20T08:06:27;90.60;;;47.20;;
24301;SDS011;12421;49.732;20.078;2022-11-20T08:16:31;82.40;;;48.00;;
24301;SDS011;12421;49.732;20.078;2022-11-20T08:26:36;88.30;;;51.50;;
24301;SDS011;12421;49.732;20.078;2022-11-20T08:36:41;73.30;;;43.00;;
24301;SDS011;12421;49.732;20.078;2022-11-20T08:46:45;65.40;;;39.30;;
24301;SDS011;12421;49.732;20.078;2022-11-20T08:56:50;58.30;;;36.20;;
24301;SDS011;12421;49.732;20.078;2022-11-20T09:06:55;60.70;;;37.20;;
24301;SDS011;12421;49.732;20.078;2022-11-20T09:16:59;52.70;;;33.40;;
24301;SDS011;12421;49.732;20.078;2022-11-20T09:27:04;49.90;;;31.70;;
24301;SDS011;12421;49.732;20.078;2022-11-20T09:37:08;46.20;;;30.50;;
24301;SDS011;12421;49.732;20.078;2022-11-20T09:57:36;62.30;;;38.80;;
24301;SDS011;12421;49.732;20.078;2022-11-20T10:07:47;52.10;;;33.10;;
24301;SDS011;12421;49.732;20.078;2022-11-20T10:28:39;44.70;;;28.60;;
24301;SDS011;12421;49.732;20.078;2022-11-20T10:49:30;52.10;;;34.50;;
24301;SDS011;12421;49.732;20.078;2022-11-20T10:59:59;51.40;;;31.90;;
24301;SDS011;12421;49.732;20.078;2022-11-20T11:10:18;49.80;;;32.50;;
24301;SDS011;12421;49.732;20.078;2022-11-20T11:20:26;51.60;;;34.00;;
24301;SDS011;12421;49.732;20.078;2022-11-20T11:30:40;47.20;;;30.90;;
24301;SDS011;12421;49.732;20.078;2022-11-20T11:40:46;57.20;;;37.80;;
24301;SDS011;12421;49.732;20.078;2022-11-20T11:50:50;49.70;;;34.30;;
24301;SDS011;12421;49.732;20.078;2022-11-20T12:21:54;51.60;;;31.90;;
24301;SDS011;12421;49.732;20.078;2022-11-20T12:42:51;64.30;;;39.20;;
24301;SDS011;12421;49.732;20.078;2022-11-20T12:53:33;77.40;;;47.50;;
24301;SDS011;12421;49.732;20.078;2022-11-20T13:03:51;82.30;;;49.40;;
24301;SDS011;12421;49.732;20.078;2022-11-20T13:14:07;71.50;;;43.60;;
24301;SDS011;12421;49.732;20.078;2022-11-20T13:24:27;65.50;;;41.30;;
24301;SDS011;12421;49.732;20.078;2022-11-20T13:34:34;61.90;;;40.20;;
24301;SDS011;12421;49.732;20.078;2022-11-20T13:44:47;79.40;;;46.30;;
24301;SDS011;12421;49.732;20.078;2022-11-20T13:55:02;79.30;;;50.20;;
24301;SDS011;12421;49.732;20.078;2022-11-20T14:05:18;71.20;;;44.20;;
24301;SDS011;12421;49.732;20.078;2022-11-20T14:25:35;84.90;;;49.70;;
24301;SDS011;12421;49.732;20.078;2022-11-20T14:35:51;212.40;;;132.10;;
24301;SDS011;12421;49.732;20.078;2022-11-20T14:46:05;95.60;;;56.20;;
24301;SDS011;12421;49.732;20.078;2022-11-20T14:56:12;126.00;;;68.60;;
24301;SDS011;12421;49.732;20.078;2022-11-20T15:06:29;91.90;;;54.00;;
24301;SDS011;12421;49.732;20.078;2022-11-20T15:16:35;112.60;;;64.30;;
24301;SDS011;12421;49.732;20.078;2022-11-20T15:26:40;99.90;;;58.50;;
24301;SDS011;12421;49.732;20.078;2022-11-20T15:36:46;94.20;;;53.10;;
24301;SDS011;12421;49.732;20.078;2022-11-20T15:46:53;124.00;;;71.30;;
24301;SDS011;12421;49.732;20.078;2022-11-20T15:56:59;144.10;;;76.70;;
24301;SDS011;12421;49.732;20.078;2022-11-20T16:07:05;124.90;;;73.50;;
24301;SDS011;12421;49.732;20.078;2022-11-20T16:17:11;141.00;;;73.10;;
24301;SDS011;12421;49.732;20.078;2022-11-20T16:27:17;111.10;;;61.90;;
24301;SDS011;12421;49.732;20.078;2022-11-20T16:37:22;122.50;;;71.50;;
24301;SDS011;12421;49.732;20.078;2022-11-20T16:47:27;144.30;;;80.50;;
24301;SDS011;12421;49.732;20.078;2022-11-20T16:57:32;137.90;;;80.10;;
24301;SDS011;12421;49.732;20.078;2022-11-20T17:07:38;139.10;;;82.20;;
24301;SDS011;12421;49.732;20.078;2022-11-20T17:17:43;176.20;;;99.50;;
24301;SDS011;12421;49.732;20.078;2022-11-20T17:27:51;149.90;;;83.40;;
24301;SDS011;12421;49.732;20.078;2022-11-20T17:37:57;118.70;;;67.00;;
24301;SDS011;12421;49.732;20.078;2022-11-20T17:48:03;89.80;;;54.10;;
24301;SDS011;12421;49.732;20.078;2022-11-20T17:58:09;73.40;;;41.30;;
24301;SDS011;12421;49.732;20.078;2022-11-20T18:08:13;82.90;;;48.80;;
24301;SDS011;12421;49.732;20.078;2022-11-20T18:18:18;80.60;;;47.90;;
24301;SDS011;12421;49.732;20.078;2022-11-20T18:28:24;85.30;;;46.50;;
24301;SDS011;12421;49.732;20.078;2022-11-20T18:38:30;62.20;;;34.50;;
24301;SDS011;12421;49.732;20.078;2022-11-20T18:48:35;80.60;;;43.60;;
24301;SDS011;12421;49.732;20.078;2022-11-20T18:58:42;64.90;;;35.20;;
24301;SDS011;12421;49.732;20.078;2022-11-20T19:08:47;69.40;;;36.70;;
24301;SDS011;12421;49.732;20.078;2022-11-20T19:18:53;64.80;;;35.50;;
24301;SDS011;12421;49.732;20.078;2022-11-20T19:29:00;56.30;;;31.10;;
24301;SDS011;12421;49.732;20.078;2022-11-20T19:39:09;62.10;;;31.70;;
24301;SDS011;12421;49.732;20.078;2022-11-20T19:49:15;75.20;;;40.00;;
24301;SDS011;12421;49.732;20.078;2022-11-20T19:59:20;59.80;;;33.30;;
24301;SDS011;12421;49.732;20.078;2022-11-20T20:09:26;61.50;;;32.90;;
24301;SDS011;12421;49.732;20.078;2022-11-20T20:19:35;97.60;;;44.90;;
24301;SDS011;12421;49.732;20.078;2022-11-20T20:29:40;92.50;;;45.20;;
24301;SDS011;12421;49.732;20.078;2022-11-20T20:39:45;82.00;;;39.60;;
24301;SDS011;12421;49.732;20.078;2022-11-20T20:49:51;77.50;;;42.10;;
24301;SDS011;12421;49.732;20.078;2022-11-20T20:59:55;81.50;;;41.80;;
24301;SDS011;12421;49.732;20.078;2022-11-20T21:10:00;73.90;;;41.90;;
24301;SDS011;12421;49.732;20.078;2022-11-20T21:20:07;70.70;;;38.20;;
24301;SDS011;12421;49.732;20.078;2022-11-20T21:30:33;74.90;;;39.80;;
24301;SDS011;12421;49.732;20.078;2022-11-20T21:40:37;125.80;;;60.20;;
24301;SDS011;12421;49.732;20.078;2022-11-20T21:50:42;67.90;;;33.60;;
24301;SDS011;12421;49.732;20.078;2022-11-20T22:00:46;80.50;;;43.10;;
24301;SDS011;12421;49.732;20.078;2022-11-20T22:10:56;96.40;;;48.90;;
24301;SDS011;12421;49.732;20.078;2022-11-20T22:21:03;67.10;;;36.60;;
24301;SDS011;12421;49.732;20.078;2022-11-20T22:31:09;78.40;;;42.60;;
24301;SDS011;12421;49.732;20.078;2022-11-20T22:41:15;113.70;;;57.60;;
24301;SDS011;12421;49.732;20.078;2022-11-20T22:51:29;78.60;;;40.40;;
24301;SDS011;12421;49.732;20.078;2022-11-20T23:01:35;79.70;;;41.40;;
24301;SDS011;12421;49.732;20.078;2022-11-20T23:11:39;83.40;;;40.60;;
24301;SDS011;12421;49.732;20.078;2022-11-20T23:21:43;71.60;;;40.20;;
24301;SDS011;12421;49.732;20.078;2022-11-20T23:31:47;71.00;;;38.10;;
24301;SDS011;12421;49.732;20.078;2022-11-20T23:41:51;57.90;;;33.50;;
24301;SDS011;12421;49.732;20.078;2022-11-20T23:51:54;44.10;;;26.00;;
